createdAt,value
2019-03-19T00:00:51.591Z,101488.63
2019-03-19T00:01:54.028Z,101483.25
2019-03-19T00:02:56.211Z,101486.77
2019-03-19T00:03:58.770Z,101488.08
2019-03-19T00:05:01.035Z,101491.61
2019-03-19T00:06:04.150Z,101492.91
2019-03-19T00:07:06.563Z,101494.21
2019-03-19T00:08:10.868Z,101494.05
2019-03-19T00:09:13.118Z,101491.61
2019-03-19T00:10:15.430Z,101491.06
2019-03-19T00:11:17.691Z,101492.37
2019-03-19T00:12:19.891Z,101492.20
2019-03-19T00:13:22.118Z,101496.11
2019-03-19T00:14:24.950Z,101497.42
2019-03-19T00:15:27.158Z,101498.72
2019-03-19T00:16:29.360Z,101498.72
2019-03-19T00:17:31.561Z,101500.95
2019-03-19T00:18:33.875Z,101499.09
2019-03-19T00:19:38.190Z,101502.62
2019-03-19T00:20:40.092Z,101510.61
2019-03-19T00:21:42.282Z,101500.95
2019-03-19T00:22:45.613Z,101499.64
2019-03-19T00:23:47.804Z,101503.01
2019-03-19T00:24:49.998Z,101502.25
2019-03-19T00:25:53.228Z,101498.34
2019-03-19T00:26:57.387Z,101502.09
2019-03-19T00:27:59.299Z,101504.69
2019-03-19T00:29:01.421Z,101509.91
2019-03-19T00:30:03.605Z,101511.20
2019-03-19T00:31:05.712Z,101506.92
2019-03-19T00:32:09.976Z,101510.83
2019-03-19T00:33:12.164Z,101510.83
2019-03-19T00:34:14.280Z,101508.22
2019-03-19T00:35:16.487Z,101516.96
2019-03-19T00:36:18.671Z,101513.27
2019-03-19T00:37:20.853Z,101511.97
2019-03-19T00:38:23.008Z,101515.12
2019-03-19T00:39:25.115Z,101513.81
2019-03-19T00:40:28.282Z,101515.50
2019-03-19T00:41:31.596Z,101514.19
2019-03-19T00:42:33.781Z,101519.41
2019-03-19T00:43:35.977Z,101514.57
2019-03-19T00:44:38.099Z,101526.30
2019-03-19T00:45:40.286Z,101523.69
2019-03-19T00:46:42.480Z,101523.69
2019-03-19T00:47:44.656Z,101526.30
2019-03-19T00:48:46.838Z,101525.92
2019-03-19T00:49:49.023Z,101524.23
2019-03-19T00:50:51.128Z,101529.83
2019-03-19T00:51:53.306Z,101533.36
2019-03-19T00:52:55.566Z,101530.75
2019-03-19T00:53:57.755Z,101530.59
2019-03-19T00:54:59.892Z,101533.58
2019-03-19T00:56:02.076Z,101533.20
2019-03-19T00:57:04.197Z,101534.87
2019-03-19T00:58:06.382Z,101538.41
2019-03-19T00:59:08.576Z,101538.78
2019-03-19T01:00:10.776Z,101545.68
2019-03-19T01:01:12.975Z,101543.61
2019-03-19T01:02:16.730Z,101544.75
2019-03-19T01:03:18.904Z,101545.30
2019-03-19T01:04:24.080Z,101544.38
2019-03-19T01:05:26.280Z,101554.42
2019-03-19T01:06:28.472Z,101555.34
2019-03-19T01:07:30.642Z,101552.20
2019-03-19T01:08:32.818Z,101554.80
2019-03-19T01:09:37.751Z,101547.36
2019-03-19T01:10:39.940Z,101555.72
2019-03-19T01:11:43.440Z,101560.02
2019-03-19T01:12:45.558Z,101558.87
2019-03-19T01:13:47.767Z,101556.48
2019-03-19T01:14:50.005Z,101562.23
2019-03-19T01:15:52.223Z,101563.00
2019-03-19T01:16:54.422Z,101558.33
2019-03-19T01:17:56.627Z,101559.09
2019-03-19T01:18:59.016Z,101564.30
2019-03-19T01:20:01.256Z,101555.17
2019-03-19T01:21:03.451Z,101565.06
2019-03-19T01:22:05.673Z,101563.75
2019-03-19T01:23:07.904Z,101565.60
2019-03-19T01:24:10.097Z,101568.59
2019-03-19T01:25:12.338Z,101568.59
2019-03-19T01:26:14.553Z,101567.28
2019-03-19T01:27:16.765Z,101573.80
2019-03-19T01:28:20.475Z,101570.27
2019-03-19T01:29:22.686Z,101568.97
2019-03-19T01:30:27.907Z,101571.19
2019-03-19T01:31:30.133Z,101573.42
2019-03-19T01:32:32.315Z,101568.59
2019-03-19T01:33:34.517Z,101568.97
2019-03-19T01:34:36.737Z,101563.38
2019-03-19T01:35:40.670Z,101568.59
2019-03-19T01:36:42.866Z,101565.98
2019-03-19T01:37:45.075Z,101562.07
2019-03-19T01:38:47.290Z,101568.59
2019-03-19T01:39:49.499Z,101573.80
2019-03-19T01:40:51.745Z,101570.27
2019-03-19T01:41:53.971Z,101573.80
2019-03-19T01:42:57.375Z,101575.48
2019-03-19T01:43:59.509Z,101575.10
2019-03-19T01:45:01.723Z,101573.25
2019-03-19T01:46:03.959Z,101579.77
2019-03-19T01:47:06.187Z,101576.23
2019-03-19T01:48:08.379Z,101582.75
2019-03-19T01:49:10.590Z,101583.09
2019-03-19T01:50:12.793Z,101584.59
2019-03-19T01:51:15.027Z,101588.51
2019-03-19T01:52:17.233Z,101582.37
2019-03-19T01:53:19.429Z,101588.89
2019-03-19T01:54:21.647Z,101583.67
2019-03-19T01:55:25.676Z,101590.19
2019-03-19T01:56:28.034Z,101585.70
2019-03-19T01:57:30.249Z,101589.61
2019-03-19T01:58:32.444Z,101588.89
2019-03-19T01:59:34.730Z,101584.41
2019-03-19T02:00:37.152Z,101584.05
2019-03-19T02:01:39.373Z,101589.27
2019-03-19T02:02:41.579Z,101593.17
2019-03-19T02:03:43.767Z,101592.22
2019-03-19T02:04:46.382Z,101585.36
2019-03-19T02:05:51.123Z,101588.69
2019-03-19T02:06:53.313Z,101588.31
2019-03-19T02:07:58.284Z,101585.70
2019-03-19T02:09:00.488Z,101586.84
2019-03-19T02:10:02.703Z,101586.46
2019-03-19T02:11:04.927Z,101585.54
2019-03-19T02:12:07.132Z,101584.23
2019-03-19T02:13:09.342Z,101587.59
2019-03-19T02:14:11.525Z,101588.69
2019-03-19T02:15:13.850Z,101589.83
2019-03-19T02:16:16.064Z,101593.90
2019-03-19T02:17:18.272Z,101590.75
2019-03-19T02:18:20.467Z,101589.83
2019-03-19T02:19:22.667Z,101587.59
2019-03-19T02:20:24.868Z,101592.81
2019-03-19T02:21:27.083Z,101596.34
2019-03-19T02:22:29.463Z,101595.41
2019-03-19T02:23:31.730Z,101599.87
2019-03-19T02:24:34.994Z,101599.32
2019-03-19T02:25:40.267Z,101595.41
2019-03-19T02:26:44.049Z,101597.64
2019-03-19T02:27:46.255Z,101599.32
2019-03-19T02:28:48.455Z,101596.34
2019-03-19T02:29:50.700Z,101602.09
2019-03-19T02:30:52.923Z,101598.02
2019-03-19T02:31:55.119Z,101599.32
2019-03-19T02:32:57.323Z,101599.70
2019-03-19T02:34:02.501Z,101597.09
2019-03-19T02:35:04.705Z,101602.31
2019-03-19T02:36:06.940Z,101609.75
2019-03-19T02:37:09.129Z,101608.82
2019-03-19T02:38:11.335Z,101611.43
2019-03-19T02:39:13.538Z,101611.81
2019-03-19T02:40:15.741Z,101615.88
2019-03-19T02:41:18.315Z,101616.26
2019-03-19T02:42:20.573Z,101614.95
2019-03-19T02:43:23.100Z,101621.09
2019-03-19T02:44:25.365Z,101613.27
2019-03-19T02:45:27.779Z,101617.94
2019-03-19T02:46:30.116Z,101613.66
2019-03-19T02:47:32.325Z,101620.55
2019-03-19T02:48:34.519Z,101622.39
2019-03-19T02:49:36.724Z,101623.16
2019-03-19T02:50:38.936Z,101626.30
2019-03-19T02:51:41.160Z,101623.70
2019-03-19T02:52:43.381Z,101627.61
2019-03-19T02:53:45.577Z,101625.00
2019-03-19T02:54:47.791Z,101622.23
2019-03-19T02:55:49.999Z,101630.05
2019-03-19T02:56:52.229Z,101624.83
2019-03-19T02:57:54.453Z,101626.52
2019-03-19T02:58:56.666Z,101627.44
2019-03-19T02:59:58.861Z,101630.21
2019-03-19T03:01:01.100Z,101633.74
2019-03-19T03:02:03.328Z,101628.36
2019-03-19T03:03:05.523Z,101628.74
2019-03-19T03:04:07.723Z,101633.95
2019-03-19T03:05:09.943Z,101632.81
2019-03-19T03:06:12.167Z,101632.81
2019-03-19T03:07:14.372Z,101626.69
2019-03-19T03:08:16.576Z,101632.81
2019-03-19T03:09:18.772Z,101627.98
2019-03-19T03:10:21.003Z,101631.14
2019-03-19T03:11:23.224Z,101633.58
2019-03-19T03:12:25.435Z,101632.27
2019-03-19T03:13:30.529Z,101631.34
2019-03-19T03:14:32.735Z,101631.89
2019-03-19T03:15:34.930Z,101634.13
2019-03-19T03:16:37.159Z,101631.34
2019-03-19T03:17:39.351Z,101627.82
2019-03-19T03:18:41.557Z,101641.02
2019-03-19T03:19:43.901Z,101635.26
2019-03-19T03:20:46.191Z,101634.50
2019-03-19T03:21:48.430Z,101638.41
2019-03-19T03:22:50.777Z,101638.78
2019-03-19T03:23:52.977Z,101632.66
2019-03-19T03:24:55.195Z,101643.83
2019-03-19T03:25:57.408Z,101632.66
2019-03-19T03:27:02.505Z,101642.53
2019-03-19T03:28:04.910Z,101645.13
2019-03-19T03:29:07.109Z,101638.62
2019-03-19T03:30:09.319Z,101649.97
2019-03-19T03:31:11.514Z,101643.45
2019-03-19T03:32:13.738Z,101653.50
2019-03-19T03:33:18.194Z,101654.80
2019-03-19T03:34:20.363Z,101650.52
2019-03-19T03:35:22.565Z,101653.12
2019-03-19T03:36:24.814Z,101656.64
2019-03-19T03:37:27.005Z,101655.72
2019-03-19T03:38:31.940Z,101655.18
2019-03-19T03:39:34.150Z,101655.56
2019-03-19T03:40:36.344Z,101665.22
2019-03-19T03:41:39.330Z,101658.16
2019-03-19T03:42:43.023Z,101661.69
2019-03-19T03:43:45.465Z,101667.28
2019-03-19T03:44:47.676Z,101666.36
2019-03-19T03:45:49.838Z,101667.66
2019-03-19T03:46:54.114Z,101668.96
2019-03-19T03:47:56.329Z,101671.56
2019-03-19T03:48:58.534Z,101670.27
2019-03-19T03:50:02.710Z,101669.72
2019-03-19T03:51:04.584Z,101663.59
2019-03-19T03:52:06.809Z,101670.64
2019-03-19T03:53:09.011Z,101672.88
2019-03-19T03:54:11.215Z,101670.64
2019-03-19T03:55:13.418Z,101674.93
2019-03-19T03:56:15.631Z,101670.64
2019-03-19T03:57:17.832Z,101677.91
2019-03-19T03:58:20.063Z,101676.23
2019-03-19T03:59:22.263Z,101678.46
2019-03-19T04:00:24.453Z,101684.98
2019-03-19T04:01:26.660Z,101682.75
2019-03-19T04:02:28.894Z,101684.42
2019-03-19T04:03:31.110Z,101690.19
2019-03-19T04:04:33.317Z,101689.64
2019-03-19T04:05:35.521Z,101695.77
2019-03-19T04:06:37.772Z,101695.77
2019-03-19T04:07:39.970Z,101691.48
2019-03-19T04:08:45.497Z,101697.08
2019-03-19T04:09:47.704Z,101697.45
2019-03-19T04:10:49.917Z,101697.83
2019-03-19T04:11:52.139Z,101695.23
2019-03-19T04:12:54.349Z,101698.37
2019-03-19T04:13:56.551Z,101699.69
2019-03-19T04:14:58.775Z,101700.06
2019-03-19T04:16:00.977Z,101698.76
2019-03-19T04:17:03.208Z,101708.63
2019-03-19T04:18:05.411Z,101709.94
2019-03-19T04:19:07.620Z,101708.63
2019-03-19T04:20:09.862Z,101712.16
2019-03-19T04:21:12.027Z,101714.39
2019-03-19T04:22:15.884Z,101714.39
2019-03-19T04:23:18.099Z,101712.92
2019-03-19T04:24:20.312Z,101719.98
2019-03-19T04:25:22.537Z,101726.49
2019-03-19T04:26:24.844Z,101725.19
2019-03-19T04:27:27.088Z,101725.02
2019-03-19T04:28:29.271Z,101727.80
2019-03-19T04:29:31.476Z,101734.69
2019-03-19T04:30:33.751Z,101739.52
2019-03-19T04:31:37.722Z,101737.12
2019-03-19T04:32:39.806Z,101749.39
2019-03-19T04:33:42.016Z,101753.68
2019-03-19T04:34:44.236Z,101752.92
2019-03-19T04:35:46.664Z,101756.83
2019-03-19T04:36:48.860Z,101758.89
2019-03-19T04:37:52.126Z,101757.59
2019-03-19T04:38:54.273Z,101761.88
2019-03-19T04:39:56.543Z,101764.10
2019-03-19T04:40:58.813Z,101756.29
2019-03-19T04:42:01.010Z,101758.89
2019-03-19T04:43:03.226Z,101759.27
2019-03-19T04:44:05.417Z,101758.14
2019-03-19T04:45:07.620Z,101757.97
2019-03-19T04:46:11.813Z,101749.56
2019-03-19T04:47:13.714Z,101750.49
2019-03-19T04:48:17.483Z,101756.29
2019-03-19T04:49:19.691Z,101757.01
2019-03-19T04:50:22.063Z,101759.81
2019-03-19T04:51:24.283Z,101757.59
2019-03-19T04:52:28.543Z,101757.59
2019-03-19T04:53:30.737Z,101761.88
2019-03-19T04:54:35.849Z,101767.09
2019-03-19T04:55:38.058Z,101764.83
2019-03-19T04:56:40.942Z,101764.48
2019-03-19T04:57:43.164Z,101763.89
2019-03-19T04:58:45.671Z,101767.42
2019-03-19T04:59:47.887Z,101780.28
2019-03-19T05:00:50.098Z,101784.02
2019-03-19T05:01:53.330Z,101783.81
2019-03-19T05:02:55.585Z,101788.27
2019-03-19T05:03:57.778Z,101790.88
2019-03-19T05:04:59.987Z,101794.78
2019-03-19T05:06:03.771Z,101796.09
2019-03-19T05:07:05.983Z,101790.88
2019-03-19T05:08:08.200Z,101793.48
2019-03-19T05:09:10.408Z,101797.39
2019-03-19T05:10:12.623Z,101794.78
2019-03-19T05:11:14.822Z,101797.77
2019-03-19T05:12:20.033Z,101803.56
2019-03-19T05:13:22.260Z,101801.30
2019-03-19T05:14:24.467Z,101792.94
2019-03-19T05:15:26.677Z,101809.11
2019-03-19T05:16:28.903Z,101808.56
2019-03-19T05:17:31.129Z,101815.63
2019-03-19T05:18:33.270Z,101816.38
2019-03-19T05:19:35.501Z,101819.91
2019-03-19T05:20:37.673Z,101820.84
2019-03-19T05:21:39.872Z,101824.58
2019-03-19T05:22:42.102Z,101826.25
2019-03-19T05:23:44.401Z,101826.80
2019-03-19T05:24:46.531Z,101826.25
2019-03-19T05:25:49.741Z,101827.19
2019-03-19T05:26:51.952Z,101828.48
2019-03-19T05:27:54.170Z,101821.05
2019-03-19T05:28:56.383Z,101826.25
2019-03-19T05:29:58.577Z,101821.97
2019-03-19T05:31:00.793Z,101824.95
2019-03-19T05:32:02.995Z,101823.27
2019-03-19T05:33:05.220Z,101822.34
2019-03-19T05:34:07.423Z,101826.80
2019-03-19T05:35:09.846Z,101827.19
2019-03-19T05:36:12.097Z,101824.03
2019-03-19T05:37:14.450Z,101822.90
2019-03-19T05:38:16.658Z,101834.63
2019-03-19T05:39:18.867Z,101837.23
2019-03-19T05:40:21.063Z,101842.44
2019-03-19T05:41:23.281Z,101841.69
2019-03-19T05:42:25.596Z,101836.30
2019-03-19T05:43:27.815Z,101844.49
2019-03-19T05:44:33.037Z,101845.97
2019-03-19T05:45:35.234Z,101845.42
2019-03-19T05:46:37.428Z,101854.16
2019-03-19T05:47:40.721Z,101848.95
2019-03-19T05:48:43.266Z,101847.27
2019-03-19T05:49:45.523Z,101849.88
2019-03-19T05:50:47.696Z,101852.31
2019-03-19T05:51:49.889Z,101851.56
2019-03-19T05:52:52.100Z,101852.31
2019-03-19T05:53:54.335Z,101854.53
2019-03-19T05:54:56.540Z,101851.38
2019-03-19T05:55:58.735Z,101855.29
2019-03-19T05:57:00.939Z,101848.40
2019-03-19T05:58:03.288Z,101851.94
2019-03-19T05:59:05.496Z,101857.14
2019-03-19T06:00:07.702Z,101858.06
2019-03-19T06:01:09.905Z,101852.86
2019-03-19T06:02:12.124Z,101854.30
2019-03-19T06:03:14.336Z,101854.78
2019-03-19T06:04:16.550Z,101863.16
2019-03-19T06:05:20.916Z,101863.66
2019-03-19T06:06:22.636Z,101861.61
2019-03-19T06:07:24.823Z,101868.47
2019-03-19T06:08:27.044Z,101866.78
2019-03-19T06:09:29.247Z,101868.25
2019-03-19T06:10:31.454Z,101870.69
2019-03-19T06:11:33.651Z,101879.44
2019-03-19T06:12:35.865Z,101869.56
2019-03-19T06:13:38.105Z,101871.41
2019-03-19T06:14:40.301Z,101875.33
2019-03-19T06:15:42.511Z,101883.69
2019-03-19T06:16:44.715Z,101884.61
2019-03-19T06:17:46.914Z,101877.72
2019-03-19T06:18:49.153Z,101880.70
2019-03-19T06:19:51.384Z,101884.06
2019-03-19T06:20:53.654Z,101882.56
2019-03-19T06:21:56.874Z,101888.16
2019-03-19T06:22:59.180Z,101885.16
2019-03-19T06:24:01.383Z,101894.08
2019-03-19T06:25:03.623Z,101886.27
2019-03-19T06:26:05.837Z,101885.71
2019-03-19T06:27:08.035Z,101891.48
2019-03-19T06:28:10.179Z,101889.42
2019-03-19T06:29:12.370Z,101894.63
2019-03-19T06:30:14.583Z,101891.27
2019-03-19T06:31:16.894Z,101893.50
2019-03-19T06:32:19.110Z,101900.56
2019-03-19T06:33:21.336Z,101903.00
2019-03-19T06:34:23.531Z,101909.31
2019-03-19T06:35:25.739Z,101911.58
2019-03-19T06:36:30.218Z,101913.22
2019-03-19T06:37:32.428Z,101908.22
2019-03-19T06:38:34.646Z,101909.90
2019-03-19T06:39:36.840Z,101909.69
2019-03-19T06:40:39.196Z,101912.30
2019-03-19T06:41:41.458Z,101911.20
2019-03-19T06:42:43.731Z,101916.28
2019-03-19T06:43:47.103Z,101908.29
2019-03-19T06:44:49.307Z,101920.43
2019-03-19T06:45:51.512Z,101919.53
2019-03-19T06:46:53.727Z,101921.05
2019-03-19T06:47:55.951Z,101917.89
2019-03-19T06:48:58.164Z,101921.42
2019-03-19T06:50:00.427Z,101924.78
2019-03-19T06:51:02.628Z,101925.53
2019-03-19T06:52:04.858Z,101926.83
2019-03-19T06:53:06.984Z,101925.91
2019-03-19T06:54:09.409Z,101930.20
2019-03-19T06:55:11.607Z,101931.87
2019-03-19T06:56:14.864Z,101936.53
2019-03-19T06:57:17.217Z,101934.48
2019-03-19T06:58:19.427Z,101935.23
2019-03-19T06:59:21.633Z,101938.22
2019-03-19T07:00:23.873Z,101940.06
2019-03-19T07:01:29.099Z,101936.91
2019-03-19T07:02:31.302Z,101935.61
2019-03-19T07:03:33.501Z,101943.80
2019-03-19T07:04:35.715Z,101938.97
2019-03-19T07:05:38.103Z,101940.27
2019-03-19T07:06:42.381Z,101944.18
2019-03-19T07:07:44.611Z,101938.97
2019-03-19T07:08:46.836Z,101943.80
2019-03-19T07:09:49.114Z,101945.11
2019-03-19T07:10:51.315Z,101944.56
2019-03-19T07:11:53.546Z,101950.32
2019-03-19T07:12:55.763Z,101942.88
2019-03-19T07:13:57.993Z,101946.23
2019-03-19T07:15:00.358Z,101940.48
2019-03-19T07:16:02.531Z,101948.84
2019-03-19T07:17:04.739Z,101949.22
2019-03-19T07:18:06.995Z,101946.61
2019-03-19T07:19:09.210Z,101950.90
2019-03-19T07:20:11.395Z,101949.97
2019-03-19T07:21:13.597Z,101953.50
2019-03-19T07:22:15.789Z,101946.06
2019-03-19T07:23:17.998Z,101953.50
2019-03-19T07:24:20.253Z,101956.11
2019-03-19T07:25:22.463Z,101952.58
2019-03-19T07:26:24.663Z,101956.11
2019-03-19T07:27:27.073Z,101959.27
2019-03-19T07:28:29.474Z,101957.41
2019-03-19T07:29:31.703Z,101963.17
2019-03-19T07:30:33.933Z,101957.97
2019-03-19T07:31:36.472Z,101969.31
2019-03-19T07:32:38.661Z,101963.93
2019-03-19T07:33:40.865Z,101962.63
2019-03-19T07:34:43.091Z,101960.77
2019-03-19T07:35:45.323Z,101963.00
2019-03-19T07:36:47.519Z,101964.30
2019-03-19T07:37:49.723Z,101966.53
2019-03-19T07:38:52.001Z,101966.53
2019-03-19T07:39:57.257Z,101966.16
2019-03-19T07:40:59.467Z,101973.22
2019-03-19T07:42:01.684Z,101971.38
2019-03-19T07:43:03.880Z,101976.58
2019-03-19T07:44:06.217Z,101979.73
2019-03-19T07:45:08.430Z,101974.91
2019-03-19T07:46:10.641Z,101973.60
2019-03-19T07:47:13.043Z,101975.28
2019-03-19T07:48:16.409Z,101977.51
2019-03-19T07:49:18.612Z,101978.81
2019-03-19T07:50:20.821Z,101980.12
2019-03-19T07:51:23.032Z,101979.73
2019-03-19T07:52:25.251Z,101981.05
2019-03-19T07:53:27.472Z,101983.65
2019-03-19T07:54:30.879Z,101984.20
2019-03-19T07:55:33.089Z,101984.95
2019-03-19T07:56:35.317Z,101989.79
2019-03-19T07:57:37.514Z,101992.02
2019-03-19T07:58:45.321Z,101995.00
2019-03-19T07:59:44.615Z,101998.53
2019-03-19T08:00:47.930Z,101997.61
2019-03-19T08:01:50.151Z,101996.30
2019-03-19T08:02:55.149Z,101997.98
2019-03-19T08:03:57.388Z,102006.36
2019-03-19T08:04:59.615Z,102004.50
2019-03-19T08:06:01.831Z,102007.66
2019-03-19T08:07:04.041Z,102002.82
2019-03-19T08:08:06.236Z,102007.11
2019-03-19T08:09:08.471Z,102008.78
2019-03-19T08:10:10.684Z,102007.48
2019-03-19T08:11:13.230Z,102008.03
2019-03-19T08:12:15.499Z,102015.84
2019-03-19T08:13:17.703Z,102008.20
2019-03-19T08:14:20.032Z,102013.80
2019-03-19T08:15:22.238Z,102020.69
2019-03-19T08:16:27.659Z,102015.84
2019-03-19T08:17:28.316Z,102021.61
2019-03-19T08:18:30.622Z,102026.83
2019-03-19T08:19:32.852Z,102019.01
2019-03-19T08:20:35.081Z,102024.59
2019-03-19T08:21:37.285Z,102028.50
2019-03-19T08:22:39.605Z,102024.05
2019-03-19T08:23:41.822Z,102034.47
2019-03-19T08:24:44.061Z,102027.58
2019-03-19T08:25:46.264Z,102031.11
2019-03-19T08:26:49.218Z,102037.25
2019-03-19T08:27:53.177Z,102038.55
2019-03-19T08:28:55.750Z,102037.63
2019-03-19T08:29:58.008Z,102045.45
2019-03-19T08:31:00.223Z,102045.45
2019-03-19T08:32:02.446Z,102049.91
2019-03-19T08:33:04.638Z,102052.14
2019-03-19T08:34:06.939Z,102052.14
2019-03-19T08:35:09.174Z,102052.69
2019-03-19T08:36:11.371Z,102054.74
2019-03-19T08:37:15.527Z,102057.34
2019-03-19T08:38:17.452Z,102058.66
2019-03-19T08:39:20.802Z,102055.12
2019-03-19T08:40:23.191Z,102065.55
2019-03-19T08:41:25.389Z,102061.26
2019-03-19T08:42:27.604Z,102067.40
2019-03-19T08:43:29.817Z,102067.77
2019-03-19T08:44:32.009Z,102078.00
2019-03-19T08:45:34.162Z,102076.52
2019-03-19T08:46:36.369Z,102081.73
2019-03-19T08:47:38.584Z,102078.75
2019-03-19T08:48:40.787Z,102083.59
2019-03-19T08:49:43.042Z,102084.89
2019-03-19T08:50:45.256Z,102091.03
2019-03-19T08:51:47.472Z,102087.33
2019-03-19T08:52:49.762Z,102092.34
2019-03-19T08:53:51.976Z,102086.20
2019-03-19T08:54:54.215Z,102099.78
2019-03-19T08:55:56.416Z,102088.42
2019-03-19T08:56:58.638Z,102097.00
2019-03-19T08:58:03.676Z,102093.64
2019-03-19T08:59:06.288Z,102101.45
2019-03-19T09:00:08.631Z,102094.94
2019-03-19T09:01:11.038Z,102101.84
2019-03-19T09:02:15.719Z,102104.06
2019-03-19T09:03:17.936Z,102102.39
2019-03-19T09:04:20.148Z,102107.05
2019-03-19T09:05:22.346Z,102108.73
2019-03-19T09:06:24.639Z,102112.44
2019-03-19T09:07:26.848Z,102112.81
2019-03-19T09:08:29.275Z,102111.33
2019-03-19T09:09:31.674Z,102113.94
2019-03-19T09:10:33.892Z,102109.48
2019-03-19T09:11:36.636Z,102115.62
2019-03-19T09:12:40.046Z,102111.70
2019-03-19T09:13:42.216Z,102115.42
2019-03-19T09:14:44.429Z,102119.70
2019-03-19T09:15:46.860Z,102118.41
2019-03-19T09:16:49.032Z,102125.48
2019-03-19T09:17:51.231Z,102125.86
2019-03-19T09:18:53.443Z,102124.19
2019-03-19T09:19:55.776Z,102124.73
2019-03-19T09:20:57.977Z,102124.73
2019-03-19T09:22:00.188Z,102128.27
2019-03-19T09:23:02.468Z,102130.88
2019-03-19T09:24:04.668Z,102128.45
2019-03-19T09:25:07.915Z,102124.55
2019-03-19T09:26:10.115Z,102134.22
2019-03-19T09:27:12.331Z,102132.91
2019-03-19T09:28:14.548Z,102134.39
2019-03-19T09:29:17.394Z,102137.59
2019-03-19T09:30:19.702Z,102138.89
2019-03-19T09:31:21.923Z,102144.45
2019-03-19T09:32:24.126Z,102143.73
2019-03-19T09:33:26.342Z,102146.52
2019-03-19T09:34:28.552Z,102150.42
2019-03-19T09:35:30.764Z,102145.41
2019-03-19T09:36:32.965Z,102146.72
2019-03-19T09:37:35.171Z,102145.20
2019-03-19T09:38:37.385Z,102151.16
2019-03-19T09:39:41.297Z,102151.16
2019-03-19T09:40:44.616Z,102150.98
2019-03-19T09:41:47.729Z,102159.35
2019-03-19T09:42:49.967Z,102150.61
2019-03-19T09:43:53.586Z,102157.85
2019-03-19T09:44:58.733Z,102159.16
2019-03-19T09:45:59.826Z,102162.91
2019-03-19T09:47:02.047Z,102161.98
2019-03-19T09:48:04.245Z,102164.74
2019-03-19T09:49:06.461Z,102166.42
2019-03-19T09:50:08.659Z,102164.94
2019-03-19T09:51:10.866Z,102170.53
2019-03-19T09:52:13.083Z,102166.24
2019-03-19T09:53:19.985Z,102167.55
2019-03-19T09:54:22.198Z,102168.10
2019-03-19T09:55:24.424Z,102170.89
2019-03-19T09:56:26.654Z,102168.28
2019-03-19T09:57:28.970Z,102173.49
2019-03-19T09:58:31.184Z,102170.52
2019-03-19T09:59:33.397Z,102172.78
2019-03-19T10:00:35.621Z,102170.91
2019-03-19T10:01:37.817Z,102176.67
2019-03-19T10:02:40.146Z,102180.94
2019-03-19T10:03:42.473Z,102178.34
2019-03-19T10:04:44.593Z,102178.72
2019-03-19T10:05:46.828Z,102180.78
2019-03-19T10:06:49.037Z,102179.47
2019-03-19T10:07:51.267Z,102180.94
2019-03-19T10:08:54.680Z,102186.73
2019-03-19T10:09:56.887Z,102184.13
2019-03-19T10:10:59.119Z,102191.73
2019-03-19T10:12:01.338Z,102188.42
2019-03-19T10:13:03.547Z,102186.15
2019-03-19T10:14:05.743Z,102189.52
2019-03-19T10:15:07.957Z,102193.06
2019-03-19T10:16:10.165Z,102191.58
2019-03-19T10:17:12.399Z,102190.45
2019-03-19T10:18:14.597Z,102188.22
2019-03-19T10:19:16.811Z,102182.64
2019-03-19T10:20:19.017Z,102190.26
2019-03-19T10:21:21.249Z,102183.74
2019-03-19T10:22:23.451Z,102189.51
2019-03-19T10:23:25.673Z,102188.58
2019-03-19T10:24:27.857Z,102187.28
2019-03-19T10:25:30.065Z,102193.80
2019-03-19T10:26:32.501Z,102190.26
2019-03-19T10:27:34.710Z,102183.19
2019-03-19T10:28:36.925Z,102188.95
2019-03-19T10:29:39.123Z,102193.24
2019-03-19T10:30:41.336Z,102195.09
2019-03-19T10:31:43.557Z,102195.66
2019-03-19T10:32:45.764Z,102198.63
2019-03-19T10:33:47.981Z,102202.17
2019-03-19T10:34:50.195Z,102197.90
2019-03-19T10:35:52.450Z,102207.02
2019-03-19T10:36:54.655Z,102204.59
2019-03-19T10:37:59.923Z,102211.48
2019-03-19T10:39:02.116Z,102207.58
2019-03-19T10:40:07.145Z,102212.23
2019-03-19T10:41:09.367Z,102207.58
2019-03-19T10:42:11.621Z,102206.65
2019-03-19T10:43:13.840Z,102208.50
2019-03-19T10:44:16.060Z,102205.91
2019-03-19T10:45:18.259Z,102208.31
2019-03-19T10:46:20.488Z,102206.63
2019-03-19T10:47:22.862Z,102213.52
2019-03-19T10:48:25.078Z,102215.38
2019-03-19T10:49:27.283Z,102212.77
2019-03-19T10:50:30.395Z,102211.65
2019-03-19T10:51:35.003Z,102218.92
2019-03-19T10:52:36.469Z,102218.55
2019-03-19T10:53:38.682Z,102216.69
2019-03-19T10:54:40.877Z,102221.16
2019-03-19T10:55:43.277Z,102218.92
2019-03-19T10:56:45.603Z,102216.87
2019-03-19T10:57:47.815Z,102214.63
2019-03-19T10:58:50.029Z,102222.63
2019-03-19T10:59:52.229Z,102219.28
2019-03-19T11:00:54.451Z,102223.94
2019-03-19T11:01:56.685Z,102214.44
2019-03-19T11:02:58.871Z,102217.80
2019-03-19T11:04:02.196Z,102222.26
2019-03-19T11:05:04.406Z,102221.13
2019-03-19T11:06:06.647Z,102223.41
2019-03-19T11:07:08.872Z,102217.05
2019-03-19T11:08:11.084Z,102223.03
2019-03-19T11:09:13.307Z,102221.13
2019-03-19T11:10:16.237Z,102220.05
2019-03-19T11:11:18.463Z,102222.09
2019-03-19T11:12:20.671Z,102230.09
2019-03-19T11:13:22.883Z,102225.63
2019-03-19T11:14:25.113Z,102224.11
2019-03-19T11:15:27.331Z,102226.01
2019-03-19T11:16:29.531Z,102223.58
2019-03-19T11:17:31.722Z,102227.49
2019-03-19T11:18:33.932Z,102227.87
2019-03-19T11:19:36.142Z,102228.80
2019-03-19T11:20:38.350Z,102226.56
2019-03-19T11:21:40.589Z,102229.17
2019-03-19T11:22:42.774Z,102230.84
2019-03-19T11:23:44.966Z,102230.84
2019-03-19T11:24:48.273Z,102230.09
2019-03-19T11:25:54.416Z,102238.67
2019-03-19T11:26:54.362Z,102242.20
2019-03-19T11:27:56.569Z,102237.37
2019-03-19T11:28:58.797Z,102245.74
2019-03-19T11:30:01.014Z,102243.69
2019-03-19T11:31:03.195Z,102242.77
2019-03-19T11:32:05.422Z,102241.08
2019-03-19T11:33:07.634Z,102237.92
2019-03-19T11:34:09.844Z,102235.69
2019-03-19T11:35:12.049Z,102243.52
2019-03-19T11:36:14.277Z,102240.91
2019-03-19T11:37:18.644Z,102244.44
2019-03-19T11:38:20.846Z,102244.99
2019-03-19T11:39:23.035Z,102245.37
2019-03-19T11:40:25.972Z,102245.37
2019-03-19T11:41:28.552Z,102243.14
2019-03-19T11:42:30.753Z,102245.74
2019-03-19T11:43:36.048Z,102253.56
2019-03-19T11:44:38.268Z,102252.26
2019-03-19T11:45:40.488Z,102244.97
2019-03-19T11:46:42.789Z,102249.63
2019-03-19T11:47:44.997Z,102244.23
2019-03-19T11:48:47.207Z,102251.88
2019-03-19T11:49:49.419Z,102261.94
2019-03-19T11:50:51.611Z,102257.47
2019-03-19T11:51:53.954Z,102251.70
2019-03-19T11:52:56.182Z,102252.81